Time;durP1;ratioP1;P1;durP2;ratioP2;P2;SDS_P1;SDS_P2;PMS_P1;PMS_P2;Temp;Humidity;BMP_temperature;BMP_pressure;BME280_temperature;BME280_humidity;BME280_pressure;Samples;Min_cycle;Max_cycle;Signal;HPM_P1;HPM_P2
2022/07/16 00:01:23;;;;;;;9.38;4.13;;;15.90;99.90;;;;;;5073778;28;20045;-66
2022/07/16 00:04:00;;;;;;;10.13;3.72;;;16.00;99.90;;;;;;5072886;28;20040;-67
2022/07/16 00:06:28;;;;;;;8.55;3.72;;;15.90;99.90;;;;;;5052140;28;20049;-66
2022/07/16 00:08:54;;;;;;;9.60;3.50;;;16.00;99.90;;;;;;5061669;28;20107;-66
2022/07/16 00:11:21;;;;;;;8.30;3.58;;;15.90;99.90;;;;;;5074153;28;20052;-68
2022/07/16 00:13:48;;;;;;;7.80;3.40;;;16.00;99.90;;;;;;5060115;28;20044;-68
2022/07/16 00:16:13;;;;;;;5.40;3.00;;;16.00;99.90;;;;;;5060365;28;20107;-69
2022/07/16 00:21:24;;;;;;;4.80;2.78;;;16.00;99.90;;;;;;5069926;28;20052;-67
2022/07/16 00:23:50;;;;;;;7.38;3.13;;;16.10;99.90;;;;;;5058781;28;20467;-67
2022/07/16 00:26:16;;;;;;;5.75;2.92;;;16.10;99.90;;;;;;5068827;28;20504;-66
2022/07/16 00:28:42;;;;;;;6.13;2.80;;;16.10;99.90;;;;;;5074733;28;20044;-66
2022/07/16 00:31:08;;;;;;;9.98;3.10;;;16.10;99.90;;;;;;5069495;28;20051;-66
2022/07/16 00:33:34;;;;;;;9.70;3.10;;;16.10;99.90;;;;;;5071411;28;20067;-68
2022/07/16 00:36:00;;;;;;;7.32;3.60;;;16.30;99.90;;;;;;5055440;28;20502;-67
2022/07/16 00:38:25;;;;;;;9.23;3.53;;;16.20;99.90;;;;;;5066118;28;20036;-68
2022/07/16 00:40:51;;;;;;;8.48;3.60;;;16.10;99.90;;;;;;5071370;28;20048;-68
2022/07/16 00:43:20;;;;;;;11.35;4.47;;;16.00;99.90;;;;;;5062684;28;20403;-67
2022/07/16 00:45:46;;;;;;;10.68;4.15;;;15.90;99.90;;;;;;5071468;28;20162;-68
2022/07/16 00:48:11;;;;;;;5.28;3.80;;;15.90;99.90;;;;;;5051351;28;20033;-67
2022/07/16 00:50:38;;;;;;;7.60;3.30;;;15.70;99.90;;;;;;5065194;28;20110;-67
2022/07/16 00:53:07;;;;;;;7.22;2.80;;;15.60;99.90;;;;;;5061232;28;20037;-67
2022/07/16 00:55:33;;;;;;;5.15;2.63;;;15.60;99.90;;;;;;5063479;28;20112;-67
2022/07/16 00:57:58;;;;;;;5.78;2.70;;;15.50;99.90;;;;;;5037724;28;20210;-67
2022/07/16 01:00:25;;;;;;;4.05;2.25;;;15.50;99.90;;;;;;5064574;28;20041;-67
2022/07/16 01:02:51;;;;;;;6.88;2.58;;;15.50;99.90;;;;;;5064526;28;20395;-66
2022/07/16 01:05:18;;;;;;;5.13;2.25;;;15.50;99.90;;;;;;5067867;28;20041;-67
2022/07/16 01:07:44;;;;;;;7.88;2.13;;;15.50;99.90;;;;;;5068612;28;20044;-67
2022/07/16 01:10:11;;;;;;;4.10;2.17;;;15.50;99.90;;;;;;5070357;28;20387;-68
2022/07/16 01:12:37;;;;;;;5.10;1.98;;;15.50;99.90;;;;;;5065839;28;20475;-67
2022/07/16 01:15:04;;;;;;;4.43;2.20;;;15.50;99.90;;;;;;5051908;28;20047;-67
2022/07/16 01:17:30;;;;;;;4.93;1.80;;;15.50;99.90;;;;;;5069941;28;20497;-67
2022/07/16 01:19:56;;;;;;;3.90;1.90;;;15.50;99.90;;;;;;5061069;28;20041;-67
2022/07/16 01:22:23;;;;;;;5.05;1.60;;;15.50;99.90;;;;;;5066245;28;20483;-67
2022/07/16 01:24:50;;;;;;;5.22;1.90;;;15.50;99.90;;;;;;5053485;28;20044;-66
2022/07/16 01:27:17;;;;;;;6.78;1.98;;;15.50;99.90;;;;;;5069123;28;20045;-67
2022/07/16 01:29:43;;;;;;;6.43;2.63;;;15.40;99.90;;;;;;5057914;28;20498;-67
2022/07/16 01:32:09;;;;;;;7.63;2.05;;;15.50;99.90;;;;;;5067464;28;20486;-67
2022/07/16 01:34:36;;;;;;;5.97;1.85;;;15.60;99.90;;;;;;5067375;28;20342;-67
2022/07/16 01:37:06;;;;;;;6.35;1.77;;;15.40;99.90;;;;;;5054394;28;20049;-67
2022/07/16 01:39:34;;;;;;;8.27;2.40;;;15.40;99.90;;;;;;5065215;28;20127;-67
2022/07/16 01:42:01;;;;;;;9.48;2.40;;;15.40;99.90;;;;;;5061227;28;20446;-67
2022/07/16 01:44:29;;;;;;;5.07;1.92;;;15.40;99.90;;;;;;5060467;28;20103;-67
2022/07/16 01:46:56;;;;;;;6.82;2.10;;;15.50;99.90;;;;;;5066991;28;20098;-66
2022/07/16 01:49:23;;;;;;;5.43;1.80;;;15.50;99.90;;;;;;5057250;28;20040;-66
2022/07/16 01:51:48;;;;;;;9.38;2.08;;;15.50;99.90;;;;;;5051746;28;20060;-67
2022/07/16 01:54:15;;;;;;;8.25;2.35;;;15.50;99.90;;;;;;5050618;28;20044;-66
2022/07/16 01:56:40;;;;;;;5.13;2.22;;;15.50;99.90;;;;;;5065096;28;20037;-67
2022/07/16 01:59:07;;;;;;;9.05;2.28;;;15.50;99.90;;;;;;5064884;28;20053;-67
2022/07/16 02:01:32;;;;;;;7.10;2.22;;;15.50;99.90;;;;;;5064296;28;20036;-67
2022/07/16 02:03:58;;;;;;;7.47;2.30;;;15.50;99.90;;;;;;5057910;28;20051;-66
2022/07/16 02:06:25;;;;;;;10.32;2.30;;;15.60;99.90;;;;;;5069267;28;20044;-67
2022/07/16 02:08:50;;;;;;;8.00;2.20;;;15.50;99.90;;;;;;5058567;28;20094;-68
2022/07/16 02:11:16;;;;;;;5.45;2.08;;;15.50;99.90;;;;;;5058797;28;20432;-68
2022/07/16 02:13:42;;;;;;;6.60;1.80;;;15.50;99.90;;;;;;5060504;28;20634;-65
2022/07/16 02:16:08;;;;;;;4.68;1.73;;;15.40;99.90;;;;;;5063245;28;20047;-67
2022/07/16 02:18:35;;;;;;;8.25;2.40;;;15.40;99.90;;;;;;5051736;28;20407;-67
2022/07/16 02:21:01;;;;;;;6.65;2.00;;;15.30;99.90;;;;;;5056006;28;20041;-67
2022/07/16 02:23:27;;;;;;;5.53;1.98;;;15.30;99.90;;;;;;5058432;28;20581;-67
2022/07/16 02:25:56;;;;;;;7.43;2.20;;;15.20;99.90;;;;;;5053964;28;20040;-67
2022/07/16 02:28:22;;;;;;;6.50;1.90;;;15.20;99.90;;;;;;5066699;28;20051;-67
2022/07/16 02:30:49;;;;;;;7.97;2.00;;;15.20;99.90;;;;;;5058822;28;20133;-67
2022/07/16 02:33:21;;;;;;;8.52;2.53;;;15.10;99.90;;;;;;5080745;28;20037;-67
2022/07/16 02:35:47;;;;;;;5.18;1.70;;;15.10;99.90;;;;;;5062202;28;20037;-67
2022/07/16 02:38:14;;;;;;;7.00;2.20;;;15.00;99.90;;;;;;5061035;28;20037;-68
2022/07/16 02:40:41;;;;;;;6.85;1.77;;;14.90;99.90;;;;;;5050577;28;20399;-67
2022/07/16 02:43:08;;;;;;;5.05;2.00;;;15.00;99.90;;;;;;5071187;28;20052;-68
2022/07/16 02:45:35;;;;;;;6.47;1.77;;;14.90;99.90;;;;;;5071448;28;20135;-68
2022/07/16 02:48:01;;;;;;;6.03;2.22;;;14.80;99.90;;;;;;5072839;28;20036;-67
2022/07/16 02:50:28;;;;;;;8.52;2.20;;;14.80;99.90;;;;;;5066343;28;20391;-67
2022/07/16 02:52:57;;;;;;;4.38;2.15;;;14.70;99.90;;;;;;5062926;28;20036;-68
2022/07/16 02:55:23;;;;;;;8.95;2.00;;;14.70;99.90;;;;;;5056223;28;20032;-67
2022/07/16 02:57:52;;;;;;;7.47;2.00;;;14.70;99.90;;;;;;5070526;28;20102;-68
2022/07/16 03:00:18;;;;;;;6.80;1.92;;;14.70;99.90;;;;;;5068667;28;20060;-68
2022/07/16 03:02:44;;;;;;;8.00;2.15;;;14.60;99.90;;;;;;5065457;28;20540;-67
2022/07/16 03:05:10;;;;;;;5.35;2.20;;;14.60;99.90;;;;;;5070846;28;20045;-68
2022/07/16 03:07:40;;;;;;;8.80;2.70;;;14.50;99.90;;;;;;5071129;28;20071;-68
2022/07/16 03:10:08;;;;;;;9.80;2.53;;;14.50;99.90;;;;;;5072651;28;20043;-68
2022/07/16 03:12:34;;;;;;;8.10;2.30;;;14.50;99.90;;;;;;5066257;28;20421;-68
2022/07/16 03:15:02;;;;;;;9.10;2.58;;;14.50;99.90;;;;;;5070047;28;20047;-67
2022/07/16 03:17:28;;;;;;;6.10;2.90;;;14.50;99.90;;;;;;5066485;28;20049;-67
2022/07/16 03:19:54;;;;;;;9.52;2.60;;;14.40;99.90;;;;;;5071711;28;20044;-68
2022/07/16 03:22:19;;;;;;;7.20;2.20;;;14.40;99.90;;;;;;5057096;28;20044;-68
2022/07/16 03:24:45;;;;;;;7.10;2.42;;;14.40;99.90;;;;;;5059264;28;20044;-68
2022/07/16 03:27:12;;;;;;;9.15;2.55;;;14.50;99.90;;;;;;5073429;28;20056;-68
2022/07/16 03:29:38;;;;;;;8.75;2.40;;;14.40;99.90;;;;;;5063435;28;20091;-69
2022/07/16 03:32:04;;;;;;;10.75;2.40;;;14.40;99.90;;;;;;5070156;28;20032;-67
2022/07/16 03:34:31;;;;;;;9.25;2.60;;;14.40;99.90;;;;;;5071297;28;20509;-68
2022/07/16 03:36:57;;;;;;;8.95;2.92;;;14.40;99.90;;;;;;5064374;28;20052;-68
2022/07/16 03:39:23;;;;;;;7.50;3.00;;;14.40;99.90;;;;;;5060301;28;20044;-67
2022/07/16 03:41:48;;;;;;;6.22;2.28;;;14.40;99.90;;;;;;5070542;28;20028;-67
2022/07/16 03:44:14;;;;;;;7.13;2.60;;;14.40;99.90;;;;;;5070902;28;20048;-67
2022/07/16 03:46:40;;;;;;;8.57;2.63;;;14.40;99.90;;;;;;5071554;28;20033;-67
2022/07/16 03:49:06;;;;;;;6.30;3.17;;;14.50;99.90;;;;;;5065014;28;20081;-68
2022/07/16 03:51:32;;;;;;;9.85;2.42;;;14.40;99.90;;;;;;5054354;28;20051;-67
2022/07/16 03:53:58;;;;;;;9.15;2.55;;;14.50;99.90;;;;;;5064001;28;20056;-68
2022/07/16 03:56:25;;;;;;;10.70;2.65;;;14.50;99.90;;;;;;5065072;28;20453;-67
2022/07/16 03:58:51;;;;;;;8.23;2.63;;;14.50;99.90;;;;;;5058324;28;20596;-69
2022/07/16 04:01:17;;;;;;;12.70;2.75;;;14.50;99.90;;;;;;5060758;28;20041;-67
2022/07/16 04:03:43;;;;;;;8.63;2.80;;;14.40;99.90;;;;;;5065586;28;20033;-67
2022/07/16 04:06:15;;;;;;;9.35;2.58;;;14.40;99.90;;;;;;5071027;28;20047;-67
2022/07/16 04:08:41;;;;;;;8.00;2.80;;;14.40;99.90;;;;;;5072953;28;20048;-68
2022/07/16 04:11:06;;;;;;;14.00;2.63;;;14.40;99.90;;;;;;5072693;28;20132;-67
2022/07/16 04:13:32;;;;;;;5.75;2.58;;;14.40;99.90;;;;;;5070620;28;20135;-67
2022/07/16 04:15:58;;;;;;;6.82;2.80;;;14.30;99.90;;;;;;5069004;28;20044;-67
2022/07/16 04:18:24;;;;;;;8.52;2.25;;;14.30;99.90;;;;;;5059711;28;20037;-67
2022/07/16 04:20:50;;;;;;;9.20;2.78;;;14.30;99.90;;;;;;5067756;28;20103;-67
2022/07/16 04:23:16;;;;;;;8.00;2.70;;;14.30;99.90;;;;;;5071398;28;20088;-68
2022/07/16 04:25:41;;;;;;;10.20;2.50;;;14.20;99.90;;;;;;5072186;28;20055;-68
2022/07/16 04:28:07;;;;;;;9.40;2.40;;;14.30;99.90;;;;;;5069806;28;20044;-67
2022/07/16 04:30:33;;;;;;;6.72;2.40;;;14.30;99.90;;;;;;5062489;28;20037;-68
2022/07/16 04:32:59;;;;;;;14.02;2.78;;;14.30;99.90;;;;;;5070528;28;20123;-67
2022/07/16 04:35:24;;;;;;;6.03;2.25;;;14.40;99.90;;;;;;5071640;28;20052;-67
2022/07/16 04:37:54;;;;;;;6.55;2.15;;;14.50;99.90;;;;;;5064779;28;20036;-68
2022/07/16 04:40:19;;;;;;;6.25;1.92;;;14.50;99.90;;;;;;5054140;28;20040;-68
2022/07/16 04:42:45;;;;;;;9.45;2.75;;;14.50;99.90;;;;;;5041337;28;20048;-67
2022/07/16 04:45:12;;;;;;;6.45;1.95;;;14.50;99.90;;;;;;5053967;28;20045;-67
2022/07/16 04:47:39;;;;;;;10.05;2.22;;;14.50;99.90;;;;;;5065645;28;20036;-67
2022/07/16 04:50:08;;;;;;;8.50;2.13;;;14.60;99.90;;;;;;5067705;28;20041;-67
2022/07/16 04:52:34;;;;;;;8.90;2.15;;;14.70;99.90;;;;;;5065540;28;20478;-68
2022/07/16 04:55:00;;;;;;;9.82;2.63;;;14.70;99.90;;;;;;5055463;28;20040;-67
2022/07/16 04:57:26;;;;;;;8.90;2.13;;;14.70;99.90;;;;;;5067382;28;20040;-67
2022/07/16 04:59:52;;;;;;;8.00;1.98;;;14.80;99.90;;;;;;5057293;28;20132;-67
2022/07/16 05:05:03;;;;;;;9.98;1.90;;;14.80;99.90;;;;;;5060031;28;20056;-68
2022/07/16 05:07:29;;;;;;;7.78;1.50;;;14.80;99.90;;;;;;5061470;28;20091;-69
2022/07/16 05:09:55;;;;;;;7.30;2.15;;;14.80;99.90;;;;;;5065096;28;20080;-68
2022/07/16 05:12:20;;;;;;;9.48;1.95;;;14.80;99.90;;;;;;5070536;28;20068;-69
2022/07/16 05:14:46;;;;;;;7.00;1.70;;;14.90;99.90;;;;;;5067353;28;20105;-67
2022/07/16 05:17:12;;;;;;;4.80;1.80;;;14.90;99.90;;;;;;5061452;28;20047;-67
2022/07/16 05:19:37;;;;;;;7.07;1.45;;;15.00;99.90;;;;;;5068996;28;20086;-67
2022/07/16 05:22:05;;;;;;;9.43;1.77;;;15.00;99.90;;;;;;5062737;28;20094;-67
2022/07/16 05:24:31;;;;;;;6.15;1.73;;;15.00;99.90;;;;;;5059679;28;20130;-68
2022/07/16 05:26:57;;;;;;;6.32;1.50;;;15.00;99.90;;;;;;5034510;28;20041;-67
2022/07/16 05:29:22;;;;;;;6.10;1.75;;;15.10;99.90;;;;;;5055930;28;20125;-68
2022/07/16 05:31:51;;;;;;;7.57;1.60;;;15.10;99.90;;;;;;5055582;28;20124;-67
2022/07/16 05:34:17;;;;;;;9.30;2.05;;;15.10;99.90;;;;;;5071684;28;20117;-67
2022/07/16 05:36:42;;;;;;;13.68;2.55;;;15.00;99.90;;;;;;5070842;28;20120;-67
2022/07/16 05:39:08;;;;;;;6.80;1.88;;;15.00;99.90;;;;;;5062924;28;20381;-68
2022/07/16 05:41:34;;;;;;;5.38;1.48;;;15.10;99.90;;;;;;5066823;28;20033;-67
2022/07/16 05:44:05;;;;;;;5.03;1.38;;;15.10;99.90;;;;;;5048394;28;20088;-66
2022/07/16 05:46:31;;;;;;;7.88;1.75;;;15.20;99.90;;;;;;5065573;28;20043;-67
2022/07/16 05:48:57;;;;;;;7.85;2.08;;;15.20;99.90;;;;;;5067548;28;20053;-68
2022/07/16 05:51:22;;;;;;;4.45;1.50;;;15.20;99.90;;;;;;5066476;28;20041;-67
2022/07/16 05:53:48;;;;;;;9.82;1.80;;;15.20;99.90;;;;;;5069510;28;20395;-68
2022/07/16 05:56:15;;;;;;;7.75;1.73;;;15.20;99.90;;;;;;5065827;28;20413;-66
2022/07/16 05:58:41;;;;;;;16.60;1.95;;;15.10;99.90;;;;;;5057517;28;20059;-68
2022/07/16 06:01:06;;;;;;;7.57;2.00;;;15.20;99.90;;;;;;5061774;28;20476;-66
2022/07/16 06:03:38;;;;;;;10.98;1.70;;;15.10;99.90;;;;;;5065884;28;20037;-67
2022/07/16 06:06:04;;;;;;;8.75;1.70;;;15.20;99.90;;;;;;5063464;28;20045;-67
2022/07/16 06:08:30;;;;;;;12.80;2.35;;;15.20;99.90;;;;;;5064849;28;20132;-67
2022/07/16 06:10:55;;;;;;;8.68;1.88;;;15.20;99.90;;;;;;5059072;28;20418;-66
2022/07/16 06:13:21;;;;;;;7.88;1.60;;;15.20;99.90;;;;;;5055632;28;20041;-67
2022/07/16 06:15:50;;;;;;;6.03;1.77;;;15.40;99.90;;;;;;5063238;28;20037;-66
2022/07/16 06:18:15;;;;;;;5.10;1.40;;;15.40;99.90;;;;;;5063512;28;20044;-67
2022/07/16 06:20:41;;;;;;;8.90;1.60;;;15.50;99.90;;;;;;5068586;28;20036;-67
2022/07/16 06:23:07;;;;;;;7.47;1.63;;;15.70;99.90;;;;;;5072809;28;20041;-66
2022/07/16 06:25:37;;;;;;;6.50;1.60;;;15.80;99.90;;;;;;5068732;28;20063;-68
2022/07/16 06:28:03;;;;;;;8.32;1.48;;;15.90;99.90;;;;;;5060492;28;20132;-66
2022/07/16 06:30:29;;;;;;;5.50;1.40;;;15.80;99.90;;;;;;5067367;28;20081;-67
2022/07/16 06:32:55;;;;;;;5.20;1.50;;;15.90;99.90;;;;;;5070740;28;20454;-67
2022/07/16 06:35:21;;;;;;;10.02;1.50;;;16.00;99.90;;;;;;5071289;28;20087;-67
2022/07/16 06:37:47;;;;;;;7.22;1.50;;;16.10;99.90;;;;;;5052815;28;20125;-66
2022/07/16 06:40:13;;;;;;;8.45;2.10;;;16.10;99.90;;;;;;5075332;28;20123;-65
2022/07/16 06:42:38;;;;;;;14.85;1.83;;;16.10;99.90;;;;;;5078536;28;20091;-67
2022/07/16 06:45:05;;;;;;;6.70;2.28;;;16.20;99.90;;;;;;5077578;28;20055;-67
2022/07/16 06:47:30;;;;;;;5.40;1.42;;;16.20;99.90;;;;;;5072128;28;20040;-68
2022/07/16 06:49:56;;;;;;;6.72;1.52;;;16.10;99.90;;;;;;5060268;28;20040;-71
2022/07/16 06:52:22;;;;;;;5.50;1.50;;;16.10;99.90;;;;;;5060834;28;20102;-69
2022/07/16 06:54:51;;;;;;;7.88;1.65;;;16.00;99.90;;;;;;5074702;28;20040;-68
2022/07/16 06:57:17;;;;;;;9.55;2.40;;;16.00;99.90;;;;;;5076449;28;20059;-69
2022/07/16 06:59:43;;;;;;;6.75;1.42;;;16.10;99.90;;;;;;5074525;28;20040;-66
2022/07/16 07:02:08;;;;;;;5.22;1.40;;;16.10;99.90;;;;;;5066171;28;20048;-67
2022/07/16 07:04:34;;;;;;;3.45;1.20;;;16.10;99.90;;;;;;5065666;28;20059;-67
2022/07/16 07:07:00;;;;;;;2.53;1.00;;;16.10;99.90;;;;;;5076095;28;20414;-68
2022/07/16 07:09:26;;;;;;;7.88;1.35;;;16.20;99.90;;;;;;5060720;28;20056;-67
2022/07/16 07:11:51;;;;;;;8.88;1.40;;;16.40;99.90;;;;;;5058198;28;20037;-68
2022/07/16 07:14:20;;;;;;;5.95;1.42;;;16.50;99.90;;;;;;5064197;28;20040;-67
2022/07/16 07:16:45;;;;;;;8.55;1.88;;;16.70;99.90;;;;;;5059810;28;20037;-68
2022/07/16 07:19:11;;;;;;;4.90;1.58;;;16.70;99.90;;;;;;5056911;28;20056;-69
2022/07/16 07:21:37;;;;;;;4.45;1.10;;;16.80;99.90;;;;;;5071568;28;20040;-68
2022/07/16 07:24:03;;;;;;;6.45;1.30;;;16.90;99.70;;;;;;5070566;28;20071;-69
2022/07/16 07:26:29;;;;;;;2.83;1.15;;;17.00;99.00;;;;;;5040427;28;20049;-69
2022/07/16 07:28:54;;;;;;;6.85;1.42;;;17.10;99.10;;;;;;5073229;28;20090;-66
2022/07/16 07:31:20;;;;;;;5.57;1.38;;;17.20;98.60;;;;;;5065516;28;20103;-69
2022/07/16 07:33:46;;;;;;;7.78;1.63;;;17.40;97.40;;;;;;5055244;28;20407;-69
2022/07/16 07:36:11;;;;;;;3.92;1.00;;;17.30;97.90;;;;;;5054851;28;20045;-68
2022/07/16 07:38:37;;;;;;;10.20;1.48;;;17.20;97.90;;;;;;5054444;28;20048;-68
2022/07/16 07:41:04;;;;;;;7.13;1.20;;;17.10;98.70;;;;;;5064924;28;20040;-66
2022/07/16 07:43:30;;;;;;;4.40;1.20;;;17.20;97.70;;;;;;5056140;28;20060;-68
2022/07/16 07:45:56;;;;;;;4.13;1.20;;;17.20;98.40;;;;;;5062406;28;20049;-67
2022/07/16 07:48:22;;;;;;;7.90;1.55;;;17.30;98.30;;;;;;5059467;28;20039;-68
2022/07/16 07:50:47;;;;;;;9.73;1.73;;;17.40;99.00;;;;;;5047390;28;20056;-68
2022/07/16 07:53:13;;;;;;;8.93;2.03;;;17.40;98.50;;;;;;5067075;28;20040;-68
2022/07/16 07:55:41;;;;;;;6.45;1.40;;;17.30;98.90;;;;;;5071938;28;20487;-67
2022/07/16 07:58:08;;;;;;;8.73;2.00;;;17.20;99.50;;;;;;5071647;28;20049;-68
2022/07/16 08:00:34;;;;;;;6.47;1.50;;;17.20;99.50;;;;;;5063131;28;20505;-68
2022/07/16 08:02:59;;;;;;;3.65;1.25;;;17.10;99.50;;;;;;5071720;28;20044;-69
2022/07/16 08:05:25;;;;;;;5.82;1.40;;;17.10;99.90;;;;;;5069692;28;20048;-68
2022/07/16 08:07:51;;;;;;;8.85;1.50;;;17.20;99.70;;;;;;5068755;28;20109;-68
2022/07/16 08:10:20;;;;;;;3.42;1.40;;;17.20;99.70;;;;;;5071144;28;20113;-67
2022/07/16 08:12:46;;;;;;;9.13;2.25;;;17.20;99.90;;;;;;5063582;28;20041;-68
2022/07/16 08:15:12;;;;;;;8.18;1.65;;;17.30;99.70;;;;;;5070630;28;20505;-66
2022/07/16 08:17:39;;;;;;;6.50;1.38;;;17.30;99.70;;;;;;5062840;28;20115;-68
2022/07/16 08:20:06;;;;;;;6.82;1.88;;;17.30;99.90;;;;;;5067383;28;20403;-68
2022/07/16 08:22:32;;;;;;;6.60;1.30;;;17.40;99.90;;;;;;5056484;28;20083;-68
2022/07/16 08:27:42;;;;;;;9.02;1.63;;;17.50;99.80;;;;;;5070083;28;20068;-67
2022/07/16 08:30:08;;;;;;;10.35;1.90;;;17.60;99.90;;;;;;5056944;28;20045;-66
2022/07/16 08:32:34;;;;;;;6.97;2.05;;;17.60;99.90;;;;;;5066698;28;20131;-67
2022/07/16 08:35:00;;;;;;;9.50;2.10;;;17.50;99.90;;;;;;5070668;28;20044;-67
2022/07/16 08:37:41;;;;;;;8.10;1.75;;;17.60;99.90;;;;;;5054607;28;20052;-67
2022/07/16 08:40:18;;;;;;;9.90;1.73;;;17.80;99.90;;;;;;5065954;28;20036;-67
2022/07/16 08:42:45;;;;;;;7.97;1.65;;;18.10;99.90;;;;;;5063606;28;20086;-68
2022/07/16 08:45:18;;;;;;;7.03;1.60;;;18.20;98.80;;;;;;5071468;28;20051;-67
2022/07/16 08:47:43;;;;;;;5.53;1.65;;;18.20;97.50;;;;;;5067877;28;20050;-66
2022/07/16 08:50:15;;;;;;;7.18;1.55;;;18.00;96.90;;;;;;5047717;28;20041;-67
2022/07/16 08:52:49;;;;;;;9.27;1.92;;;17.90;97.20;;;;;;5053656;28;20041;-68
2022/07/16 08:55:15;;;;;;;7.75;1.70;;;17.80;97.80;;;;;;5060466;28;20041;-67
2022/07/16 08:57:41;;;;;;;6.50;1.30;;;17.70;98.30;;;;;;5064338;28;20043;-67
2022/07/16 09:00:11;;;;;;;7.00;1.30;;;17.80;98.50;;;;;;5061037;28;20041;-67
2022/07/16 09:02:38;;;;;;;6.28;1.40;;;18.00;97.80;;;;;;5066857;28;20048;-68
2022/07/16 09:05:07;;;;;;;5.35;1.65;;;18.10;97.70;;;;;;5049524;28;20045;-65
2022/07/16 09:07:33;;;;;;;9.20;1.30;;;18.20;96.90;;;;;;5051684;28;20037;-65
2022/07/16 09:09:58;;;;;;;8.10;1.42;;;18.20;96.10;;;;;;5035661;28;20045;-66
2022/07/16 09:12:51;;;;;;;7.45;2.65;;;18.10;96.00;;;;;;5063484;28;20044;-65
2022/07/16 09:15:34;;;;;;;4.75;1.20;;;18.10;94.50;;;;;;5050020;28;20120;-67
2022/07/16 09:18:21;;;;;;;4.65;1.48;;;18.20;95.90;;;;;;5067034;28;20127;-67
2022/07/16 09:21:00;;;;;;;7.60;2.00;;;18.40;94.50;;;;;;5054062;28;20056;-65
2022/07/16 09:23:52;;;;;;;7.38;1.60;;;18.60;94.80;;;;;;5051356;28;20044;-67
2022/07/16 09:26:18;;;;;;;13.48;1.65;;;19.00;94.60;;;;;;5069016;28;20064;-66
2022/07/16 09:28:49;;;;;;;3.42;1.20;;;19.10;94.20;;;;;;5067486;28;20056;-66
2022/07/16 09:31:33;;;;;;;8.75;2.03;;;19.10;93.80;;;;;;5071791;28;20041;-67
2022/07/16 09:34:10;;;;;;;5.25;1.38;;;18.80;94.60;;;;;;5071401;28;20159;-67
2022/07/16 09:36:41;;;;;;;9.73;1.57;;;18.60;94.60;;;;;;5062231;28;20044;-67
2022/07/16 09:39:08;;;;;;;12.63;1.90;;;18.40;94.70;;;;;;5068700;28;20048;-65
2022/07/16 09:41:45;;;;;;;6.82;1.52;;;18.30;93.90;;;;;;5066046;28;20036;-67
2022/07/16 09:44:22;;;;;;;7.63;1.40;;;18.30;93.00;;;;;;5052608;28;20041;-68
2022/07/16 09:47:08;;;;;;;8.48;1.40;;;18.40;93.50;;;;;;5051471;28;20041;-67
2022/07/16 09:49:50;;;;;;;5.25;1.50;;;18.60;92.90;;;;;;5067087;28;20090;-68
2022/07/16 09:52:29;;;;;;;7.22;1.20;;;18.60;93.30;;;;;;5060261;28;20047;-69
2022/07/16 09:54:59;;;;;;;5.88;1.60;;;18.40;93.20;;;;;;5052401;28;20041;-66
2022/07/16 09:57:27;;;;;;;6.32;1.25;;;18.50;93.50;;;;;;5070485;28;20090;-66
2022/07/16 09:59:55;;;;;;;9.18;1.67;;;18.30;92.90;;;;;;5058175;28;20045;-66
2022/07/16 10:02:21;;;;;;;7.07;1.48;;;18.40;93.40;;;;;;5069399;28;20053;-67
2022/07/16 10:04:47;;;;;;;5.47;1.30;;;18.70;92.50;;;;;;5066824;28;20429;-65
2022/07/16 10:07:17;;;;;;;5.18;1.30;;;19.00;91.80;;;;;;5058772;28;20195;-66
2022/07/16 10:09:43;;;;;;;6.72;1.40;;;19.20;91.90;;;;;;5066312;28;20107;-67
2022/07/16 10:12:14;;;;;;;6.35;1.73;;;19.20;92.30;;;;;;5053145;28;20124;-66
2022/07/16 10:14:45;;;;;;;5.32;1.40;;;19.10;92.30;;;;;;5058469;28;20045;-68
2022/07/16 10:17:34;;;;;;;8.07;1.65;;;18.90;93.00;;;;;;5062998;28;20083;-68
2022/07/16 10:20:12;;;;;;;8.10;1.55;;;19.00;93.60;;;;;;5055977;28;20494;-67
2022/07/16 10:22:40;;;;;;;6.35;1.48;;;19.20;93.80;;;;;;5049839;28;20073;-67
2022/07/16 10:25:22;;;;;;;2.97;1.08;;;19.30;93.10;;;;;;5052870;28;20041;-66
2022/07/16 10:27:49;;;;;;;4.93;1.38;;;19.30;92.30;;;;;;5061312;28;20076;-68
2022/07/16 10:30:19;;;;;;;5.13;1.40;;;19.30;91.90;;;;;;5051081;28;20048;-68
2022/07/16 10:33:06;;;;;;;12.60;2.13;;;19.40;92.10;;;;;;5053368;28;20087;-67
2022/07/16 10:35:39;;;;;;;7.68;1.33;;;19.50;91.80;;;;;;5051725;28;20080;-65
2022/07/16 10:38:17;;;;;;;11.65;2.03;;;19.40;92.30;;;;;;5052168;28;20517;-66
2022/07/16 10:40:44;;;;;;;9.27;1.80;;;19.30;91.70;;;;;;5056386;28;20036;-68
2022/07/16 10:43:21;;;;;;;6.55;1.48;;;19.10;92.30;;;;;;5061027;28;20318;-66
2022/07/16 10:45:51;;;;;;;7.57;1.63;;;19.10;91.50;;;;;;5051951;28;20041;-66
2022/07/16 10:48:17;;;;;;;3.50;1.25;;;19.30;91.30;;;;;;5057289;28;20406;-66
2022/07/16 10:51:16;;;;;;;6.28;1.58;;;19.60;90.50;;;;;;5059121;28;20066;-66
2022/07/16 10:53:57;;;;;;;3.45;1.45;;;20.10;90.40;;;;;;5068054;28;20076;-67
2022/07/16 10:56:40;;;;;;;7.60;1.90;;;20.50;90.60;;;;;;5063027;28;21032;-67
2022/07/16 10:59:11;;;;;;;5.22;1.50;;;20.70;89.90;;;;;;5055624;28;20045;-66
2022/07/16 11:01:40;;;;;;;9.13;1.50;;;20.80;90.40;;;;;;5057701;28;20072;-68
2022/07/16 11:04:07;;;;;;;8.30;1.63;;;20.40;90.90;;;;;;5061874;28;20080;-65
2022/07/16 11:06:33;;;;;;;9.35;1.73;;;20.30;91.00;;;;;;5071794;28;20052;-67
2022/07/16 11:09:01;;;;;;;7.70;2.25;;;20.10;90.80;;;;;;5065335;28;20056;-66
2022/07/16 11:11:40;;;;;;;;;;;20.30;90.70;;;;;;5067111;28;20463;-68
2022/07/16 11:14:07;;;;;;;12.68;2.17;;;20.40;91.10;;;;;;5070015;28;19928;-67
2022/07/16 11:16:47;;;;;;;6.30;1.30;;;20.40;90.40;;;;;;5066727;28;20048;-67
2022/07/16 11:19:12;;;;;;;9.88;1.73;;;20.30;90.50;;;;;;5063757;28;20061;-67
2022/07/16 11:21:51;;;;;;;5.35;1.73;;;20.30;90.10;;;;;;5066985;28;20036;-67
2022/07/16 11:24:17;;;;;;;6.68;1.50;;;20.40;87.10;;;;;;5069483;28;20387;-67
2022/07/16 11:26:42;;;;;;;4.50;1.13;;;20.50;86.50;;;;;;5067911;28;20037;-67
2022/07/16 11:29:08;;;;;;;5.85;1.40;;;20.70;86.90;;;;;;5070241;28;20079;-67
2022/07/16 11:31:36;;;;;;;9.80;1.55;;;20.70;84.60;;;;;;5043315;28;20045;-67
2022/07/16 11:34:06;;;;;;;;;;;21.00;86.40;;;;;;5069183;28;20490;-68
2022/07/16 11:36:44;;;;;;;10.05;1.92;;;21.10;84.40;;;;;;5055411;28;20473;-68
2022/07/16 11:39:14;;;;;;;7.13;1.58;;;20.90;83.50;;;;;;5049943;28;20094;-66
2022/07/16 11:41:49;;;;;;;6.97;1.25;;;20.80;85.20;;;;;;5065364;28;20174;-66
2022/07/16 11:44:19;;;;;;;8.95;1.98;;;20.60;84.50;;;;;;5065683;28;21438;-67
2022/07/16 11:47:15;;;;;;;8.98;2.30;;;20.50;85.40;;;;;;5068588;28;20041;-67
2022/07/16 11:49:43;;;;;;;6.55;1.42;;;20.40;84.50;;;;;;5052862;28;20538;-66
2022/07/16 11:52:24;;;;;;;4.30;1.25;;;20.30;84.10;;;;;;5056306;28;20098;-68
2022/07/16 11:54:53;;;;;;;3.22;1.20;;;20.30;84.80;;;;;;5069998;28;20056;-67
2022/07/16 11:57:19;;;;;;;3.25;1.23;;;20.30;83.70;;;;;;5069473;28;20558;-70
2022/07/16 11:59:51;;;;;;;4.70;1.17;;;20.30;82.40;;;;;;5064012;28;20383;-66
2022/07/16 12:02:20;;;;;;;6.63;1.33;;;20.10;82.00;;;;;;5059253;28;20052;-67
2022/07/16 12:04:55;;;;;;;6.90;1.70;;;19.80;83.70;;;;;;5064871;28;20091;-68
2022/07/16 12:07:24;;;;;;;3.38;1.35;;;19.60;84.30;;;;;;5068870;28;20103;-67
2022/07/16 12:09:53;;;;;;;8.30;1.48;;;19.80;84.20;;;;;;5059801;28;20053;-68
2022/07/16 12:12:22;;;;;;;3.92;1.23;;;20.10;84.40;;;;;;5068421;28;20398;-67
2022/07/16 12:15:00;;;;;;;6.28;1.70;;;20.30;84.50;;;;;;5052577;28;20499;-66
2022/07/16 12:17:31;;;;;;;9.95;1.75;;;20.30;84.10;;;;;;5063845;28;20044;-67
2022/07/16 12:20:08;;;;;;;7.78;1.38;;;20.40;84.40;;;;;;5066346;28;20043;-68
2022/07/16 12:22:56;;;;;;;4.07;1.13;;;20.50;84.40;;;;;;5049149;28;20483;-67
2022/07/16 12:25:28;;;;;;;6.80;1.45;;;20.50;83.10;;;;;;5059936;28;20059;-65
2022/07/16 12:28:11;;;;;;;7.72;1.67;;;20.30;81.90;;;;;;5061414;28;20068;-69
2022/07/16 12:30:45;;;;;;;3.53;1.20;;;20.30;82.00;;;;;;5066917;28;20452;-68
2022/07/16 12:33:23;;;;;;;6.97;1.60;;;20.40;82.50;;;;;;5065063;28;20472;-68
2022/07/16 12:36:04;;;;;;;6.72;1.50;;;20.50;81.60;;;;;;5061316;28;20098;-67
2022/07/16 12:38:40;;;;;;;8.23;1.70;;;20.20;83.40;;;;;;5069883;28;20418;-67
2022/07/16 12:41:11;;;;;;;7.38;1.45;;;20.00;84.20;;;;;;5060576;28;20037;-67
2022/07/16 12:43:39;;;;;;;7.47;1.52;;;20.10;85.40;;;;;;5055065;28;20128;-67
2022/07/16 12:46:06;;;;;;;6.00;1.33;;;20.10;82.70;;;;;;5055736;28;20044;-67
2022/07/16 12:48:40;;;;;;;9.57;1.77;;;20.00;83.60;;;;;;5062407;28;20576;-68
2022/07/16 12:51:06;;;;;;;8.45;1.63;;;20.00;84.90;;;;;;5062496;28;20575;-66
2022/07/16 12:53:31;;;;;;;7.53;2.00;;;20.30;84.50;;;;;;5070069;28;20044;-70
2022/07/16 12:58:47;;;;;;;12.00;2.75;;;20.90;84.30;;;;;;5067073;28;20139;-66
2022/07/16 13:01:13;;;;;;;8.48;1.73;;;21.10;81.20;;;;;;5056162;28;20053;-67
2022/07/16 13:03:42;;;;;;;8.52;1.30;;;21.20;80.00;;;;;;5054924;28;20036;-67